KBNW/BNW METAR and TAF weather

Enter ICAO airport designator
Station Type Date Time Source
KBNW METAR 2022/11/30 16:35 UTC NOAA

KBNW 301635Z AUTO 30023G31KT 10SM BKN019 BKN024 M07/M12 A3025 RMK AO2


Station Type Date Time Source
KBNW Decoded METAR 2022/11/30 16:35 UTC NOAA

Boone Municipal, IA, United States (KBNW) 42-03N 093-51W
Nov 30, 2022 - 11:35 AM EST / 2022.11.30 1635 UTC
Wind: from the WNW (300 degrees) at 26 MPH (23 KT) gusting to 36 MPH (31 KT):0
Visibility: 10 mile(s):0
Sky conditions: mostly cloudy
Temperature: 19 F (-7 C)
Windchill: 1 F (-17 C):1
Dew Point: 10 F (-12 C)
Relative Humidity: 67%
Pressure (altimeter): 30.25 in. Hg (1024 hPa)
ob: KBNW 301635Z AUTO 30023G31KT 10SM BKN019 BKN024 M07/M12 A3025 RMK AO2
cycle: 16

Station Type Date Time Source
KBNW TAF UTC NOAA

Error!

Example: see airport list